sensor_id;sensor_type;location;lat;lon;timestamp;P1;durP1;ratioP1;P2;durP2;ratioP2
10463;SDS011;5279;42.048;24.638;2022-10-16T00:01:37;5.40;;;4.20;;
10463;SDS011;5279;42.048;24.638;2022-10-16T00:04:05;5.10;;;4.60;;
10463;SDS011;5279;42.048;24.638;2022-10-16T00:06:31;5.83;;;4.43;;
10463;SDS011;5279;42.048;24.638;2022-10-16T00:08:59;7.00;;;5.00;;
10463;SDS011;5279;42.048;24.638;2022-10-16T00:11:26;4.93;;;4.50;;
10463;SDS011;5279;42.048;24.638;2022-10-16T00:13:58;5.70;;;4.50;;
10463;SDS011;5279;42.048;24.638;2022-10-16T00:16:27;5.20;;;4.80;;
10463;SDS011;5279;42.048;24.638;2022-10-16T00:18:54;5.00;;;4.33;;
10463;SDS011;5279;42.048;24.638;2022-10-16T00:21:22;5.37;;;4.87;;
10463;SDS011;5279;42.048;24.638;2022-10-16T00:23:53;5.27;;;4.73;;
10463;SDS011;5279;42.048;24.638;2022-10-16T00:26:21;5.50;;;4.67;;
10463;SDS011;5279;42.048;24.638;2022-10-16T00:28:49;6.10;;;4.60;;
10463;SDS011;5279;42.048;24.638;2022-10-16T00:31:19;5.27;;;4.10;;
10463;SDS011;5279;42.048;24.638;2022-10-16T00:33:48;5.33;;;4.40;;
10463;SDS011;5279;42.048;24.638;2022-10-16T00:36:17;4.70;;;4.30;;
10463;SDS011;5279;42.048;24.638;2022-10-16T00:38:46;5.20;;;4.60;;
10463;SDS011;5279;42.048;24.638;2022-10-16T00:41:14;6.00;;;4.30;;
10463;SDS011;5279;42.048;24.638;2022-10-16T00:43:43;5.10;;;4.60;;
10463;SDS011;5279;42.048;24.638;2022-10-16T00:46:15;5.20;;;4.77;;
10463;SDS011;5279;42.048;24.638;2022-10-16T00:48:49;4.97;;;4.30;;
10463;SDS011;5279;42.048;24.638;2022-10-16T00:51:25;4.90;;;4.40;;
10463;SDS011;5279;42.048;24.638;2022-10-16T00:54:01;4.70;;;4.30;;
10463;SDS011;5279;42.048;24.638;2022-10-16T00:56:29;4.93;;;4.53;;
10463;SDS011;5279;42.048;24.638;2022-10-16T00:58:58;5.20;;;4.73;;
10463;SDS011;5279;42.048;24.638;2022-10-16T01:01:29;5.13;;;4.53;;
10463;SDS011;5279;42.048;24.638;2022-10-16T01:03:57;5.10;;;4.60;;
10463;SDS011;5279;42.048;24.638;2022-10-16T01:06:26;5.83;;;4.30;;
10463;SDS011;5279;42.048;24.638;2022-10-16T01:09:05;5.50;;;4.63;;
10463;SDS011;5279;42.048;24.638;2022-10-16T01:11:41;5.20;;;4.67;;
10463;SDS011;5279;42.048;24.638;2022-10-16T01:14:15;5.33;;;4.70;;
10463;SDS011;5279;42.048;24.638;2022-10-16T01:16:52;5.73;;;4.27;;
10463;SDS011;5279;42.048;24.638;2022-10-16T01:19:25;5.10;;;4.70;;
10463;SDS011;5279;42.048;24.638;2022-10-16T01:22:33;5.13;;;4.67;;
10463;SDS011;5279;42.048;24.638;2022-10-16T01:25:11;5.27;;;4.77;;
10463;SDS011;5279;42.048;24.638;2022-10-16T01:27:42;7.93;;;4.80;;
10463;SDS011;5279;42.048;24.638;2022-10-16T01:30:13;4.50;;;4.10;;
10463;SDS011;5279;42.048;24.638;2022-10-16T01:32:44;4.90;;;4.50;;
10463;SDS011;5279;42.048;24.638;2022-10-16T01:35:18;4.73;;;4.33;;
10463;SDS011;5279;42.048;24.638;2022-10-16T01:37:49;5.17;;;4.67;;
10463;SDS011;5279;42.048;24.638;2022-10-16T01:40:20;5.67;;;5.17;;
10463;SDS011;5279;42.048;24.638;2022-10-16T01:42:52;5.70;;;5.07;;
10463;SDS011;5279;42.048;24.638;2022-10-16T01:45:24;5.03;;;4.60;;
10463;SDS011;5279;42.048;24.638;2022-10-16T01:47:54;5.17;;;4.77;;
10463;SDS011;5279;42.048;24.638;2022-10-16T01:50:22;5.80;;;5.13;;
10463;SDS011;5279;42.048;24.638;2022-10-16T01:52:51;5.50;;;4.93;;
10463;SDS011;5279;42.048;24.638;2022-10-16T01:55:22;5.90;;;4.97;;
10463;SDS011;5279;42.048;24.638;2022-10-16T01:57:56;5.93;;;5.40;;
10463;SDS011;5279;42.048;24.638;2022-10-16T02:00:26;4.47;;;4.07;;
10463;SDS011;5279;42.048;24.638;2022-10-16T02:02:54;8.83;;;5.43;;
10463;SDS011;5279;42.048;24.638;2022-10-16T02:05:25;6.43;;;5.40;;
10463;SDS011;5279;42.048;24.638;2022-10-16T02:07:54;5.07;;;4.67;;
10463;SDS011;5279;42.048;24.638;2022-10-16T02:10:21;5.60;;;5.10;;
10463;SDS011;5279;42.048;24.638;2022-10-16T02:12:50;5.70;;;5.20;;
10463;SDS011;5279;42.048;24.638;2022-10-16T02:15:25;5.73;;;5.10;;
10463;SDS011;5279;42.048;24.638;2022-10-16T02:17:55;5.90;;;5.23;;
10463;SDS011;5279;42.048;24.638;2022-10-16T02:20:24;5.70;;;5.03;;
10463;SDS011;5279;42.048;24.638;2022-10-16T02:22:53;5.50;;;5.00;;
10463;SDS011;5279;42.048;24.638;2022-10-16T02:25:24;5.57;;;5.00;;
10463;SDS011;5279;42.048;24.638;2022-10-16T02:27:57;5.53;;;4.93;;
10463;SDS011;5279;42.048;24.638;2022-10-16T02:30:32;5.90;;;5.40;;
10463;SDS011;5279;42.048;24.638;2022-10-16T02:33:05;5.83;;;4.80;;
10463;SDS011;5279;42.048;24.638;2022-10-16T02:35:36;6.57;;;5.40;;
10463;SDS011;5279;42.048;24.638;2022-10-16T02:38:04;7.90;;;5.50;;
10463;SDS011;5279;42.048;24.638;2022-10-16T02:40:32;7.67;;;5.40;;
10463;SDS011;5279;42.048;24.638;2022-10-16T02:43:00;6.03;;;4.90;;
10463;SDS011;5279;42.048;24.638;2022-10-16T02:45:31;5.83;;;5.23;;
10463;SDS011;5279;42.048;24.638;2022-10-16T02:47:58;6.63;;;5.40;;
10463;SDS011;5279;42.048;24.638;2022-10-16T02:50:25;5.80;;;5.30;;
10463;SDS011;5279;42.048;24.638;2022-10-16T02:52:52;5.67;;;5.10;;
10463;SDS011;5279;42.048;24.638;2022-10-16T02:55:19;7.13;;;5.47;;
10463;SDS011;5279;42.048;24.638;2022-10-16T02:57:46;5.10;;;4.60;;
10463;SDS011;5279;42.048;24.638;2022-10-16T03:00:14;5.63;;;5.13;;
10463;SDS011;5279;42.048;24.638;2022-10-16T03:02:43;5.90;;;5.30;;
10463;SDS011;5279;42.048;24.638;2022-10-16T03:05:10;6.67;;;5.67;;
10463;SDS011;5279;42.048;24.638;2022-10-16T03:07:37;5.97;;;5.37;;
10463;SDS011;5279;42.048;24.638;2022-10-16T03:10:04;5.90;;;5.33;;
10463;SDS011;5279;42.048;24.638;2022-10-16T03:12:32;6.47;;;5.53;;
10463;SDS011;5279;42.048;24.638;2022-10-16T03:14:59;6.07;;;5.13;;
10463;SDS011;5279;42.048;24.638;2022-10-16T03:17:26;6.13;;;5.03;;
10463;SDS011;5279;42.048;24.638;2022-10-16T03:19:55;6.40;;;5.10;;
10463;SDS011;5279;42.048;24.638;2022-10-16T03:22:21;8.63;;;5.50;;
10463;SDS011;5279;42.048;24.638;2022-10-16T03:24:48;5.83;;;4.73;;
10463;SDS011;5279;42.048;24.638;2022-10-16T03:27:15;5.17;;;4.77;;
10463;SDS011;5279;42.048;24.638;2022-10-16T03:29:42;5.20;;;4.80;;
10463;SDS011;5279;42.048;24.638;2022-10-16T03:32:12;6.53;;;5.50;;
10463;SDS011;5279;42.048;24.638;2022-10-16T03:34:38;6.50;;;5.80;;
10463;SDS011;5279;42.048;24.638;2022-10-16T03:37:07;6.03;;;5.13;;
10463;SDS011;5279;42.048;24.638;2022-10-16T03:39:33;6.17;;;5.50;;
10463;SDS011;5279;42.048;24.638;2022-10-16T03:42:00;6.53;;;5.90;;
10463;SDS011;5279;42.048;24.638;2022-10-16T03:44:27;5.73;;;5.17;;
10463;SDS011;5279;42.048;24.638;2022-10-16T03:46:55;6.70;;;4.90;;
10463;SDS011;5279;42.048;24.638;2022-10-16T03:49:21;5.50;;;5.00;;
10463;SDS011;5279;42.048;24.638;2022-10-16T03:51:48;5.53;;;5.03;;
10463;SDS011;5279;42.048;24.638;2022-10-16T03:54:16;6.07;;;5.10;;
10463;SDS011;5279;42.048;24.638;2022-10-16T03:56:43;5.77;;;5.27;;
10463;SDS011;5279;42.048;24.638;2022-10-16T03:59:10;6.30;;;5.40;;
10463;SDS011;5279;42.048;24.638;2022-10-16T04:01:37;6.60;;;5.87;;
10463;SDS011;5279;42.048;24.638;2022-10-16T04:04:04;6.53;;;5.80;;
10463;SDS011;5279;42.048;24.638;2022-10-16T04:06:31;7.30;;;5.37;;
10463;SDS011;5279;42.048;24.638;2022-10-16T04:08:57;6.27;;;5.67;;
10463;SDS011;5279;42.048;24.638;2022-10-16T04:11:26;9.63;;;5.33;;
10463;SDS011;5279;42.048;24.638;2022-10-16T04:13:52;5.93;;;5.30;;
10463;SDS011;5279;42.048;24.638;2022-10-16T04:16:19;5.60;;;5.10;;
10463;SDS011;5279;42.048;24.638;2022-10-16T04:18:46;5.53;;;5.10;;
10463;SDS011;5279;42.048;24.638;2022-10-16T04:21:13;5.73;;;5.23;;
10463;SDS011;5279;42.048;24.638;2022-10-16T04:23:40;9.37;;;5.37;;
10463;SDS011;5279;42.048;24.638;2022-10-16T04:26:08;5.83;;;5.33;;
10463;SDS011;5279;42.048;24.638;2022-10-16T04:28:36;7.00;;;5.30;;
10463;SDS011;5279;42.048;24.638;2022-10-16T04:31:04;7.53;;;5.23;;
10463;SDS011;5279;42.048;24.638;2022-10-16T04:33:31;6.90;;;5.20;;
10463;SDS011;5279;42.048;24.638;2022-10-16T04:35:58;6.53;;;5.27;;
10463;SDS011;5279;42.048;24.638;2022-10-16T04:38:26;6.40;;;5.07;;
10463;SDS011;5279;42.048;24.638;2022-10-16T04:41:02;7.00;;;5.47;;
10463;SDS011;5279;42.048;24.638;2022-10-16T04:43:29;6.50;;;5.10;;
10463;SDS011;5279;42.048;24.638;2022-10-16T04:45:57;11.43;;;6.70;;
10463;SDS011;5279;42.048;24.638;2022-10-16T04:48:24;5.37;;;4.90;;
10463;SDS011;5279;42.048;24.638;2022-10-16T04:50:51;5.80;;;5.23;;
10463;SDS011;5279;42.048;24.638;2022-10-16T04:53:18;6.40;;;4.90;;
10463;SDS011;5279;42.048;24.638;2022-10-16T04:55:45;7.80;;;5.30;;
10463;SDS011;5279;42.048;24.638;2022-10-16T04:58:11;6.37;;;5.70;;
10463;SDS011;5279;42.048;24.638;2022-10-16T05:00:38;5.47;;;5.00;;
10463;SDS011;5279;42.048;24.638;2022-10-16T05:03:06;9.53;;;4.90;;
10463;SDS011;5279;42.048;24.638;2022-10-16T05:05:34;6.30;;;5.70;;
10463;SDS011;5279;42.048;24.638;2022-10-16T05:08:01;4.87;;;4.47;;
10463;SDS011;5279;42.048;24.638;2022-10-16T05:10:28;7.57;;;5.00;;
10463;SDS011;5279;42.048;24.638;2022-10-16T05:12:55;5.60;;;4.70;;
10463;SDS011;5279;42.048;24.638;2022-10-16T05:15:22;4.73;;;4.33;;
10463;SDS011;5279;42.048;24.638;2022-10-16T05:17:52;6.60;;;5.90;;
10463;SDS011;5279;42.048;24.638;2022-10-16T05:20:20;5.30;;;4.80;;
10463;SDS011;5279;42.048;24.638;2022-10-16T05:22:47;5.30;;;4.80;;
10463;SDS011;5279;42.048;24.638;2022-10-16T05:25:14;5.03;;;4.53;;
10463;SDS011;5279;42.048;24.638;2022-10-16T05:27:41;5.40;;;4.47;;
10463;SDS011;5279;42.048;24.638;2022-10-16T05:30:09;5.07;;;4.50;;
10463;SDS011;5279;42.048;24.638;2022-10-16T05:32:36;6.90;;;4.57;;
10463;SDS011;5279;42.048;24.638;2022-10-16T05:35:03;4.47;;;4.07;;
10463;SDS011;5279;42.048;24.638;2022-10-16T05:37:32;5.97;;;4.10;;
10463;SDS011;5279;42.048;24.638;2022-10-16T05:39:59;5.97;;;3.93;;
10463;SDS011;5279;42.048;24.638;2022-10-16T05:42:29;4.87;;;4.37;;
10463;SDS011;5279;42.048;24.638;2022-10-16T05:44:58;5.20;;;4.20;;
10463;SDS011;5279;42.048;24.638;2022-10-16T05:47:24;4.67;;;3.93;;
10463;SDS011;5279;42.048;24.638;2022-10-16T05:49:51;4.40;;;4.00;;
10463;SDS011;5279;42.048;24.638;2022-10-16T05:52:18;3.57;;;3.30;;
10463;SDS011;5279;42.048;24.638;2022-10-16T05:54:46;4.00;;;3.60;;
10463;SDS011;5279;42.048;24.638;2022-10-16T05:57:13;5.40;;;4.27;;
10463;SDS011;5279;42.048;24.638;2022-10-16T05:59:40;4.30;;;3.90;;
10463;SDS011;5279;42.048;24.638;2022-10-16T06:02:08;4.87;;;4.20;;
10463;SDS011;5279;42.048;24.638;2022-10-16T06:04:39;4.93;;;4.20;;
10463;SDS011;5279;42.048;24.638;2022-10-16T06:07:06;4.23;;;3.83;;
10463;SDS011;5279;42.048;24.638;2022-10-16T06:09:33;4.57;;;4.17;;
10463;SDS011;5279;42.048;24.638;2022-10-16T06:12:04;6.93;;;5.13;;
10463;SDS011;5279;42.048;24.638;2022-10-16T06:14:32;6.07;;;5.47;;
10463;SDS011;5279;42.048;24.638;2022-10-16T06:16:59;7.83;;;5.30;;
10463;SDS011;5279;42.048;24.638;2022-10-16T06:19:26;7.37;;;6.00;;
10463;SDS011;5279;42.048;24.638;2022-10-16T06:21:52;7.43;;;5.70;;
10463;SDS011;5279;42.048;24.638;2022-10-16T06:24:19;8.03;;;5.50;;
10463;SDS011;5279;42.048;24.638;2022-10-16T06:26:46;7.63;;;5.37;;
10463;SDS011;5279;42.048;24.638;2022-10-16T06:29:16;7.83;;;5.73;;
10463;SDS011;5279;42.048;24.638;2022-10-16T06:31:43;5.93;;;5.43;;
10463;SDS011;5279;42.048;24.638;2022-10-16T06:34:10;5.87;;;5.27;;
10463;SDS011;5279;42.048;24.638;2022-10-16T06:36:37;4.07;;;3.77;;
10463;SDS011;5279;42.048;24.638;2022-10-16T06:39:04;4.10;;;3.80;;
10463;SDS011;5279;42.048;24.638;2022-10-16T06:41:32;4.73;;;3.50;;
10463;SDS011;5279;42.048;24.638;2022-10-16T06:44:00;5.27;;;4.70;;
10463;SDS011;5279;42.048;24.638;2022-10-16T06:46:28;4.60;;;4.17;;
10463;SDS011;5279;42.048;24.638;2022-10-16T06:48:55;4.53;;;3.83;;
10463;SDS011;5279;42.048;24.638;2022-10-16T06:51:22;4.60;;;4.20;;
10463;SDS011;5279;42.048;24.638;2022-10-16T06:54:08;4.63;;;4.23;;
10463;SDS011;5279;42.048;24.638;2022-10-16T06:56:35;5.53;;;4.90;;
10463;SDS011;5279;42.048;24.638;2022-10-16T06:59:02;5.40;;;4.90;;
10463;SDS011;5279;42.048;24.638;2022-10-16T07:01:32;6.90;;;5.00;;
10463;SDS011;5279;42.048;24.638;2022-10-16T07:03:59;6.23;;;4.63;;
10463;SDS011;5279;42.048;24.638;2022-10-16T07:06:27;6.67;;;4.87;;
10463;SDS011;5279;42.048;24.638;2022-10-16T07:09:06;4.70;;;4.30;;
10463;SDS011;5279;42.048;24.638;2022-10-16T07:11:33;11.80;;;5.13;;
10463;SDS011;5279;42.048;24.638;2022-10-16T07:14:02;5.53;;;5.03;;
10463;SDS011;5279;42.048;24.638;2022-10-16T07:16:32;5.20;;;4.70;;
10463;SDS011;5279;42.048;24.638;2022-10-16T07:18:59;6.43;;;5.00;;
10463;SDS011;5279;42.048;24.638;2022-10-16T07:21:30;5.47;;;4.93;;
10463;SDS011;5279;42.048;24.638;2022-10-16T07:24:00;5.33;;;4.80;;
10463;SDS011;5279;42.048;24.638;2022-10-16T07:26:28;6.37;;;4.60;;
10463;SDS011;5279;42.048;24.638;2022-10-16T07:28:56;5.83;;;4.67;;
10463;SDS011;5279;42.048;24.638;2022-10-16T07:31:23;4.80;;;4.33;;
10463;SDS011;5279;42.048;24.638;2022-10-16T07:33:52;5.90;;;4.80;;
10463;SDS011;5279;42.048;24.638;2022-10-16T07:36:21;6.47;;;5.00;;
10463;SDS011;5279;42.048;24.638;2022-10-16T07:38:51;5.97;;;4.20;;
10463;SDS011;5279;42.048;24.638;2022-10-16T07:41:19;5.20;;;4.70;;
10463;SDS011;5279;42.048;24.638;2022-10-16T07:43:46;4.70;;;4.30;;
10463;SDS011;5279;42.048;24.638;2022-10-16T07:46:14;7.77;;;4.60;;
10463;SDS011;5279;42.048;24.638;2022-10-16T07:48:42;5.63;;;4.60;;
10463;SDS011;5279;42.048;24.638;2022-10-16T07:51:13;5.17;;;4.67;;
10463;SDS011;5279;42.048;24.638;2022-10-16T07:53:41;7.67;;;4.43;;
10463;SDS011;5279;42.048;24.638;2022-10-16T07:56:08;4.47;;;4.07;;
10463;SDS011;5279;42.048;24.638;2022-10-16T07:58:36;10.27;;;5.00;;
10463;SDS011;5279;42.048;24.638;2022-10-16T08:01:04;5.33;;;4.23;;
10463;SDS011;5279;42.048;24.638;2022-10-16T08:03:31;5.83;;;4.43;;
10463;SDS011;5279;42.048;24.638;2022-10-16T08:05:58;6.70;;;4.03;;
10463;SDS011;5279;42.048;24.638;2022-10-16T08:08:27;4.77;;;4.07;;
10463;SDS011;5279;42.048;24.638;2022-10-16T08:10:54;5.47;;;4.27;;
10463;SDS011;5279;42.048;24.638;2022-10-16T08:13:22;6.60;;;4.20;;
10463;SDS011;5279;42.048;24.638;2022-10-16T08:15:49;5.60;;;4.20;;
10463;SDS011;5279;42.048;24.638;2022-10-16T08:18:16;7.93;;;4.63;;
10463;SDS011;5279;42.048;24.638;2022-10-16T08:20:43;5.33;;;4.33;;
10463;SDS011;5279;42.048;24.638;2022-10-16T08:23:11;5.33;;;4.23;;
10463;SDS011;5279;42.048;24.638;2022-10-16T08:25:40;5.50;;;4.03;;
10463;SDS011;5279;42.048;24.638;2022-10-16T08:28:09;5.33;;;4.20;;
10463;SDS011;5279;42.048;24.638;2022-10-16T08:30:36;7.90;;;4.03;;
10463;SDS011;5279;42.048;24.638;2022-10-16T08:33:03;5.20;;;3.97;;
10463;SDS011;5279;42.048;24.638;2022-10-16T08:35:31;4.30;;;3.60;;
10463;SDS011;5279;42.048;24.638;2022-10-16T08:37:58;7.43;;;3.53;;
10463;SDS011;5279;42.048;24.638;2022-10-16T08:40:25;4.93;;;3.63;;
10463;SDS011;5279;42.048;24.638;2022-10-16T08:45:51;5.07;;;3.53;;
10463;SDS011;5279;42.048;24.638;2022-10-16T08:48:43;5.80;;;3.30;;
10463;SDS011;5279;42.048;24.638;2022-10-16T08:51:15;4.17;;;3.47;;
10463;SDS011;5279;42.048;24.638;2022-10-16T08:53:52;3.77;;;3.10;;
10463;SDS011;5279;42.048;24.638;2022-10-16T08:56:21;3.73;;;3.33;;
10463;SDS011;5279;42.048;24.638;2022-10-16T08:58:52;4.27;;;3.23;;
10463;SDS011;5279;42.048;24.638;2022-10-16T09:01:21;5.83;;;3.27;;
10463;SDS011;5279;42.048;24.638;2022-10-16T09:03:54;5.90;;;3.50;;
10463;SDS011;5279;42.048;24.638;2022-10-16T09:06:42;9.70;;;3.67;;
10463;SDS011;5279;42.048;24.638;2022-10-16T09:12:12;6.03;;;3.47;;
10463;SDS011;5279;42.048;24.638;2022-10-16T09:14:50;4.90;;;3.20;;
10463;SDS011;5279;42.048;24.638;2022-10-16T09:17:30;4.07;;;3.10;;
10463;SDS011;5279;42.048;24.638;2022-10-16T09:20:13;3.83;;;3.33;;
10463;SDS011;5279;42.048;24.638;2022-10-16T09:22:46;5.32;;;3.40;;
10463;SDS011;5279;42.048;24.638;2022-10-16T09:25:25;4.70;;;3.63;;
10463;SDS011;5279;42.048;24.638;2022-10-16T09:27:52;4.53;;;3.10;;
10463;SDS011;5279;42.048;24.638;2022-10-16T09:30:21;4.43;;;3.30;;
10463;SDS011;5279;42.048;24.638;2022-10-16T09:32:57;4.82;;;3.20;;
10463;SDS011;5279;42.048;24.638;2022-10-16T09:35:27;3.42;;;3.10;;
10463;SDS011;5279;42.048;24.638;2022-10-16T09:38:02;4.05;;;3.35;;
10463;SDS011;5279;42.048;24.638;2022-10-16T09:40:30;4.22;;;3.03;;
10463;SDS011;5279;42.048;24.638;2022-10-16T09:43:01;5.35;;;2.90;;
10463;SDS011;5279;42.048;24.638;2022-10-16T09:45:34;4.72;;;3.10;;
10463;SDS011;5279;42.048;24.638;2022-10-16T09:48:01;3.63;;;3.28;;
10463;SDS011;5279;42.048;24.638;2022-10-16T09:50:37;3.70;;;3.20;;
10463;SDS011;5279;42.048;24.638;2022-10-16T09:53:05;7.32;;;3.33;;
10463;SDS011;5279;42.048;24.638;2022-10-16T09:55:35;3.28;;;2.95;;
10463;SDS011;5279;42.048;24.638;2022-10-16T09:58:02;7.35;;;3.40;;
10463;SDS011;5279;42.048;24.638;2022-10-16T10:00:29;3.22;;;2.92;;
10463;SDS011;5279;42.048;24.638;2022-10-16T10:02:58;3.50;;;2.85;;
10463;SDS011;5279;42.048;24.638;2022-10-16T10:05:26;4.50;;;3.05;;
10463;SDS011;5279;42.048;24.638;2022-10-16T10:07:55;4.22;;;2.85;;
10463;SDS011;5279;42.048;24.638;2022-10-16T10:10:25;4.35;;;3.08;;
10463;SDS011;5279;42.048;24.638;2022-10-16T10:12:54;4.70;;;3.08;;
10463;SDS011;5279;42.048;24.638;2022-10-16T10:15:22;3.97;;;3.17;;
10463;SDS011;5279;42.048;24.638;2022-10-16T10:17:52;3.40;;;2.70;;
10463;SDS011;5279;42.048;24.638;2022-10-16T10:20:26;4.68;;;2.95;;
10463;SDS011;5279;42.048;24.638;2022-10-16T10:22:57;3.25;;;2.65;;
10463;SDS011;5279;42.048;24.638;2022-10-16T10:25:26;3.63;;;3.30;;
10463;SDS011;5279;42.048;24.638;2022-10-16T10:28:18;3.63;;;2.70;;
10463;SDS011;5279;42.048;24.638;2022-10-16T10:30:55;3.72;;;2.92;;
10463;SDS011;5279;42.048;24.638;2022-10-16T10:33:31;3.85;;;2.72;;
10463;SDS011;5279;42.048;24.638;2022-10-16T10:38:54;3.55;;;2.78;;
10463;SDS011;5279;42.048;24.638;2022-10-16T10:41:48;4.50;;;2.47;;
10463;SDS011;5279;42.048;24.638;2022-10-16T10:44:50;4.07;;;2.60;;
10463;SDS011;5279;42.048;24.638;2022-10-16T10:47:35;3.47;;;2.83;;
10463;SDS011;5279;42.048;24.638;2022-10-16T10:50:14;4.43;;;3.00;;
10463;SDS011;5279;42.048;24.638;2022-10-16T10:52:52;2.65;;;2.45;;
10463;SDS011;5279;42.048;24.638;2022-10-16T10:55:28;3.13;;;2.78;;
10463;SDS011;5279;42.048;24.638;2022-10-16T10:58:10;3.00;;;2.70;;
10463;SDS011;5279;42.048;24.638;2022-10-16T11:00:57;3.08;;;2.42;;
10463;SDS011;5279;42.048;24.638;2022-10-16T11:03:36;2.47;;;2.28;;
10463;SDS011;5279;42.048;24.638;2022-10-16T11:06:19;3.03;;;2.70;;
10463;SDS011;5279;42.048;24.638;2022-10-16T11:08:53;2.97;;;2.42;;
10463;SDS011;5279;42.048;24.638;2022-10-16T11:11:27;3.88;;;2.45;;
10463;SDS011;5279;42.048;24.638;2022-10-16T11:14:00;2.50;;;2.30;;
10463;SDS011;5279;42.048;24.638;2022-10-16T11:16:34;2.58;;;2.35;;
10463;SDS011;5279;42.048;24.638;2022-10-16T11:19:08;4.15;;;2.35;;
10463;SDS011;5279;42.048;24.638;2022-10-16T11:21:48;3.00;;;2.33;;
10463;SDS011;5279;42.048;24.638;2022-10-16T11:24:23;4.43;;;2.33;;
10463;SDS011;5279;42.048;24.638;2022-10-16T11:26:59;5.07;;;2.70;;
10463;SDS011;5279;42.048;24.638;2022-10-16T11:29:33;3.75;;;2.30;;
10463;SDS011;5279;42.048;24.638;2022-10-16T11:32:11;4.85;;;2.70;;
10463;SDS011;5279;42.048;24.638;2022-10-16T11:34:48;4.57;;;2.60;;
10463;SDS011;5279;42.048;24.638;2022-10-16T11:37:19;3.15;;;2.65;;
10463;SDS011;5279;42.048;24.638;2022-10-16T11:39:54;2.72;;;2.00;;
10463;SDS011;5279;42.048;24.638;2022-10-16T11:42:27;3.35;;;2.38;;
10463;SDS011;5279;42.048;24.638;2022-10-16T11:45:03;2.35;;;1.83;;
10463;SDS011;5279;42.048;24.638;2022-10-16T11:47:45;2.17;;;1.98;;
10463;SDS011;5279;42.048;24.638;2022-10-16T11:50:22;3.28;;;2.30;;
10463;SDS011;5279;42.048;24.638;2022-10-16T11:52:54;3.22;;;2.25;;
10463;SDS011;5279;42.048;24.638;2022-10-16T11:55:30;4.13;;;2.17;;
10463;SDS011;5279;42.048;24.638;2022-10-16T11:58:01;2.70;;;2.30;;
10463;SDS011;5279;42.048;24.638;2022-10-16T12:00:33;2.22;;;2.10;;
10463;SDS011;5279;42.048;24.638;2022-10-16T12:03:10;2.40;;;2.15;;
10463;SDS011;5279;42.048;24.638;2022-10-16T12:05:49;3.92;;;2.10;;
10463;SDS011;5279;42.048;24.638;2022-10-16T12:08:24;2.13;;;1.92;;
10463;SDS011;5279;42.048;24.638;2022-10-16T12:11:07;2.80;;;2.13;;
10463;SDS011;5279;42.048;24.638;2022-10-16T12:13:37;2.40;;;2.22;;
10463;SDS011;5279;42.048;24.638;2022-10-16T12:16:22;3.80;;;2.40;;
10463;SDS011;5279;42.048;24.638;2022-10-16T12:18:50;3.30;;;2.20;;
10463;SDS011;5279;42.048;24.638;2022-10-16T12:21:36;5.88;;;2.40;;
10463;SDS011;5279;42.048;24.638;2022-10-16T12:24:03;2.45;;;2.25;;
10463;SDS011;5279;42.048;24.638;2022-10-16T12:26:32;2.55;;;2.17;;
10463;SDS011;5279;42.048;24.638;2022-10-16T12:29:12;2.00;;;1.90;;
10463;SDS011;5279;42.048;24.638;2022-10-16T12:31:47;3.15;;;2.10;;
10463;SDS011;5279;42.048;24.638;2022-10-16T12:34:20;3.03;;;2.47;;
10463;SDS011;5279;42.048;24.638;2022-10-16T12:36:52;4.80;;;2.30;;
10463;SDS011;5279;42.048;24.638;2022-10-16T12:39:21;3.40;;;2.10;;
10463;SDS011;5279;42.048;24.638;2022-10-16T12:42:02;3.13;;;2.17;;
10463;SDS011;5279;42.048;24.638;2022-10-16T12:44:33;3.28;;;2.35;;
10463;SDS011;5279;42.048;24.638;2022-10-16T12:47:01;7.28;;;2.30;;
10463;SDS011;5279;42.048;24.638;2022-10-16T12:49:30;3.10;;;2.15;;
10463;SDS011;5279;42.048;24.638;2022-10-16T12:51:58;2.53;;;2.17;;
10463;SDS011;5279;42.048;24.638;2022-10-16T12:54:27;3.42;;;2.20;;
10463;SDS011;5279;42.048;24.638;2022-10-16T12:57:00;2.90;;;2.35;;
10463;SDS011;5279;42.048;24.638;2022-10-16T12:59:41;2.22;;;2.03;;
10463;SDS011;5279;42.048;24.638;2022-10-16T13:02:24;5.22;;;2.13;;
10463;SDS011;5279;42.048;24.638;2022-10-16T13:05:46;2.72;;;2.40;;
10463;SDS011;5279;42.048;24.638;2022-10-16T13:08:38;4.60;;;2.28;;
10463;SDS011;5279;42.048;24.638;2022-10-16T13:11:20;2.95;;;2.00;;
10463;SDS011;5279;42.048;24.638;2022-10-16T13:13:59;5.35;;;2.40;;
10463;SDS011;5279;42.048;24.638;2022-10-16T13:16:39;3.78;;;2.35;;
10463;SDS011;5279;42.048;24.638;2022-10-16T13:19:18;2.67;;;2.30;;
10463;SDS011;5279;42.048;24.638;2022-10-16T13:21:56;3.40;;;2.65;;
10463;SDS011;5279;42.048;24.638;2022-10-16T13:24:36;2.50;;;2.30;;
10463;SDS011;5279;42.048;24.638;2022-10-16T13:27:18;2.95;;;2.00;;
10463;SDS011;5279;42.048;24.638;2022-10-16T13:30:00;4.78;;;2.45;;
10463;SDS011;5279;42.048;24.638;2022-10-16T13:32:34;2.97;;;2.20;;
10463;SDS011;5279;42.048;24.638;2022-10-16T13:35:01;4.10;;;2.75;;
10463;SDS011;5279;42.048;24.638;2022-10-16T13:37:29;6.25;;;2.95;;
10463;SDS011;5279;42.048;24.638;2022-10-16T13:40:02;3.00;;;2.30;;
10463;SDS011;5279;42.048;24.638;2022-10-16T13:42:39;5.07;;;3.00;;
10463;SDS011;5279;42.048;24.638;2022-10-16T13:45:18;3.10;;;2.80;;
10463;SDS011;5279;42.048;24.638;2022-10-16T13:47:46;4.80;;;3.35;;
10463;SDS011;5279;42.048;24.638;2022-10-16T13:50:14;6.57;;;2.92;;
10463;SDS011;5279;42.048;24.638;2022-10-16T13:52:43;5.15;;;2.95;;
10463;SDS011;5279;42.048;24.638;2022-10-16T13:55:11;3.50;;;3.20;;
10463;SDS011;5279;42.048;24.638;2022-10-16T13:57:39;3.13;;;2.83;;
10463;SDS011;5279;42.048;24.638;2022-10-16T14:00:18;4.15;;;3.13;;
10463;SDS011;5279;42.048;24.638;2022-10-16T14:02:58;3.33;;;2.47;;
10463;SDS011;5279;42.048;24.638;2022-10-16T14:05:31;6.40;;;3.03;;
10463;SDS011;5279;42.048;24.638;2022-10-16T14:07:58;3.97;;;3.58;;
10463;SDS011;5279;42.048;24.638;2022-10-16T14:10:26;4.25;;;3.72;;
10463;SDS011;5279;42.048;24.638;2022-10-16T14:13:00;7.50;;;3.50;;
10463;SDS011;5279;42.048;24.638;2022-10-16T14:15:30;4.43;;;3.13;;
10463;SDS011;5279;42.048;24.638;2022-10-16T14:17:59;3.08;;;2.78;;
10463;SDS011;5279;42.048;24.638;2022-10-16T14:20:27;3.17;;;2.90;;
10463;SDS011;5279;42.048;24.638;2022-10-16T14:23:00;3.30;;;3.00;;
10463;SDS011;5279;42.048;24.638;2022-10-16T14:25:29;5.22;;;3.10;;
10463;SDS011;5279;42.048;24.638;2022-10-16T14:28:01;4.75;;;4.35;;
10463;SDS011;5279;42.048;24.638;2022-10-16T14:30:32;10.45;;;8.55;;
10463;SDS011;5279;42.048;24.638;2022-10-16T14:33:01;109.22;;;90.90;;
10463;SDS011;5279;42.048;24.638;2022-10-16T14:35:30;326.77;;;254.05;;
10463;SDS011;5279;42.048;24.638;2022-10-16T14:38:00;240.48;;;177.05;;
10463;SDS011;5279;42.048;24.638;2022-10-16T14:40:28;85.37;;;59.07;;
10463;SDS011;5279;42.048;24.638;2022-10-16T14:42:57;11.23;;;7.57;;
10463;SDS011;5279;42.048;24.638;2022-10-16T14:45:26;4.03;;;3.63;;
10463;SDS011;5279;42.048;24.638;2022-10-16T14:47:59;16.80;;;10.23;;
10463;SDS011;5279;42.048;24.638;2022-10-16T14:50:28;5.37;;;3.67;;
10463;SDS011;5279;42.048;24.638;2022-10-16T14:52:54;4.37;;;3.10;;
10463;SDS011;5279;42.048;24.638;2022-10-16T14:55:22;4.27;;;3.40;;
10463;SDS011;5279;42.048;24.638;2022-10-16T14:57:49;3.97;;;2.90;;
10463;SDS011;5279;42.048;24.638;2022-10-16T15:00:17;4.40;;;3.23;;
10463;SDS011;5279;42.048;24.638;2022-10-16T15:02:45;3.27;;;2.97;;
10463;SDS011;5279;42.048;24.638;2022-10-16T15:05:17;3.83;;;3.30;;
10463;SDS011;5279;42.048;24.638;2022-10-16T15:07:45;3.03;;;2.80;;
10463;SDS011;5279;42.048;24.638;2022-10-16T15:10:14;3.63;;;3.33;;
10463;SDS011;5279;42.048;24.638;2022-10-16T15:12:45;5.77;;;2.90;;
10463;SDS011;5279;42.048;24.638;2022-10-16T15:15:19;5.37;;;3.20;;
10463;SDS011;5279;42.048;24.638;2022-10-16T15:17:53;4.73;;;2.80;;
10463;SDS011;5279;42.048;24.638;2022-10-16T15:20:23;3.67;;;2.63;;